sensor_id;sensor_type;location;lat;lon;timestamp;pressure;altitude;pressure_sealevel;temperature;humidity
63306;BME280;50735;52.060;1.248;2023-04-27T00:01:04;101716.48;;;8.22;44.16
63306;BME280;50735;52.060;1.248;2023-04-27T00:03:36;101714.30;;;8.25;44.50
63306;BME280;50735;52.060;1.248;2023-04-27T00:06:09;101713.39;;;8.44;44.30
63306;BME280;50735;52.060;1.248;2023-04-27T00:08:41;101715.57;;;8.35;44.00
63306;BME280;50735;52.060;1.248;2023-04-27T00:11:12;101713.50;;;8.55;44.32
63306;BME280;50735;52.060;1.248;2023-04-27T00:13:44;101713.04;;;8.18;44.69
63306;BME280;50735;52.060;1.248;2023-04-27T00:16:15;101711.72;;;8.14;44.87
63306;BME280;50735;52.060;1.248;2023-04-27T00:18:47;101709.94;;;8.13;44.55
63306;BME280;50735;52.060;1.248;2023-04-27T00:21:19;101710.69;;;8.15;45.16
63306;BME280;50735;52.060;1.248;2023-04-27T00:23:51;101705.86;;;8.17;44.90
63306;BME280;50735;52.060;1.248;2023-04-27T00:26:23;101703.46;;;8.31;45.14
63306;BME280;50735;52.060;1.248;2023-04-27T00:28:55;101701.40;;;8.12;45.59
63306;BME280;50735;52.060;1.248;2023-04-27T00:31:26;101701.00;;;7.86;45.76
63306;BME280;50735;52.060;1.248;2023-04-27T00:33:58;101697.41;;;8.09;45.73
63306;BME280;50735;52.060;1.248;2023-04-27T00:36:32;101694.14;;;8.15;45.59
63306;BME280;50735;52.060;1.248;2023-04-27T00:39:04;101695.10;;;8.05;46.11
63306;BME280;50735;52.060;1.248;2023-04-27T00:41:36;101690.04;;;7.96;46.24
63306;BME280;50735;52.060;1.248;2023-04-27T00:44:08;101693.51;;;8.04;45.86
63306;BME280;50735;52.060;1.248;2023-04-27T00:46:40;101692.29;;;8.11;46.01
63306;BME280;50735;52.060;1.248;2023-04-27T00:49:11;101691.51;;;8.18;45.48
63306;BME280;50735;52.060;1.248;2023-04-27T00:51:44;101686.87;;;8.10;45.52
63306;BME280;50735;52.060;1.248;2023-04-27T00:54:18;101683.93;;;8.02;46.01
63306;BME280;50735;52.060;1.248;2023-04-27T00:56:51;101683.37;;;7.85;45.64
63306;BME280;50735;52.060;1.248;2023-04-27T00:59:23;101681.04;;;7.99;45.92
63306;BME280;50735;52.060;1.248;2023-04-27T01:01:55;101676.48;;;8.05;46.11
63306;BME280;50735;52.060;1.248;2023-04-27T01:04:27;101670.68;;;7.92;46.53
63306;BME280;50735;52.060;1.248;2023-04-27T01:07:00;101672.29;;;7.93;46.48
63306;BME280;50735;52.060;1.248;2023-04-27T01:09:32;101665.50;;;7.65;46.56
63306;BME280;50735;52.060;1.248;2023-04-27T01:12:05;101658.83;;;7.86;46.67
63306;BME280;50735;52.060;1.248;2023-04-27T01:14:37;101660.35;;;7.98;46.31
63306;BME280;50735;52.060;1.248;2023-04-27T01:17:08;101663.03;;;7.76;46.64
63306;BME280;50735;52.060;1.248;2023-04-27T01:19:40;101660.16;;;7.95;46.69
63306;BME280;50735;52.060;1.248;2023-04-27T01:22:12;101659.42;;;7.92;46.86
63306;BME280;50735;52.060;1.248;2023-04-27T01:24:44;101661.95;;;7.89;46.89
63306;BME280;50735;52.060;1.248;2023-04-27T01:27:16;101665.43;;;7.73;46.97
63306;BME280;50735;52.060;1.248;2023-04-27T01:29:48;101664.46;;;7.94;47.01
63306;BME280;50735;52.060;1.248;2023-04-27T01:32:20;101663.17;;;7.99;46.62
63306;BME280;50735;52.060;1.248;2023-04-27T01:34:52;101658.99;;;7.80;47.37
63306;BME280;50735;52.060;1.248;2023-04-27T01:37:23;101659.15;;;7.80;47.58
63306;BME280;50735;52.060;1.248;2023-04-27T01:39:57;101660.09;;;7.79;47.43
63306;BME280;50735;52.060;1.248;2023-04-27T01:42:28;101660.76;;;7.89;47.26
63306;BME280;50735;52.060;1.248;2023-04-27T01:45:00;101656.45;;;7.80;47.79
63306;BME280;50735;52.060;1.248;2023-04-27T01:47:32;101660.95;;;7.91;47.50
63306;BME280;50735;52.060;1.248;2023-04-27T01:50:05;101658.91;;;7.55;48.16
63306;BME280;50735;52.060;1.248;2023-04-27T01:52:37;101659.59;;;7.82;47.57
63306;BME280;50735;52.060;1.248;2023-04-27T01:55:09;101656.75;;;7.85;47.87
63306;BME280;50735;52.060;1.248;2023-04-27T01:57:41;101657.17;;;7.84;47.87
63306;BME280;50735;52.060;1.248;2023-04-27T02:00:13;101657.80;;;7.78;48.21
63306;BME280;50735;52.060;1.248;2023-04-27T02:02:45;101657.54;;;7.89;47.69
63306;BME280;50735;52.060;1.248;2023-04-27T02:05:17;101653.69;;;7.75;48.46
63306;BME280;50735;52.060;1.248;2023-04-27T02:07:49;101651.56;;;7.73;48.42
63306;BME280;50735;52.060;1.248;2023-04-27T02:10:22;101649.29;;;7.59;47.93
63306;BME280;50735;52.060;1.248;2023-04-27T02:12:54;101644.56;;;7.81;47.93
63306;BME280;50735;52.060;1.248;2023-04-27T02:15:25;101642.48;;;7.85;47.91
63306;BME280;50735;52.060;1.248;2023-04-27T02:17:57;101640.83;;;7.79;48.23
63306;BME280;50735;52.060;1.248;2023-04-27T02:20:29;101638.59;;;7.72;48.31
63306;BME280;50735;52.060;1.248;2023-04-27T02:23:01;101640.55;;;7.83;48.00
63306;BME280;50735;52.060;1.248;2023-04-27T02:25:35;101638.15;;;7.77;48.41
63306;BME280;50735;52.060;1.248;2023-04-27T02:28:07;101634.10;;;7.68;48.51
63306;BME280;50735;52.060;1.248;2023-04-27T02:30:39;101634.74;;;7.57;48.98
63306;BME280;50735;52.060;1.248;2023-04-27T02:33:10;101632.97;;;7.42;49.08
63306;BME280;50735;52.060;1.248;2023-04-27T02:35:42;101634.30;;;7.52;48.87
63306;BME280;50735;52.060;1.248;2023-04-27T02:38:14;101640.04;;;7.50;48.68
63306;BME280;50735;52.060;1.248;2023-04-27T02:40:46;101642.31;;;7.56;48.78
63306;BME280;50735;52.060;1.248;2023-04-27T02:43:17;101646.54;;;7.68;48.41
63306;BME280;50735;52.060;1.248;2023-04-27T02:45:49;101646.52;;;7.54;48.24
63306;BME280;50735;52.060;1.248;2023-04-27T02:48:21;101641.89;;;7.48;48.37
63306;BME280;50735;52.060;1.248;2023-04-27T02:50:53;101640.45;;;7.63;48.52
63306;BME280;50735;52.060;1.248;2023-04-27T02:53:25;101636.59;;;7.53;48.57
63306;BME280;50735;52.060;1.248;2023-04-27T02:55:57;101640.77;;;7.65;48.23
63306;BME280;50735;52.060;1.248;2023-04-27T02:58:28;101644.79;;;7.64;48.47
63306;BME280;50735;52.060;1.248;2023-04-27T03:01:00;101648.04;;;7.94;48.25
63306;BME280;50735;52.060;1.248;2023-04-27T03:03:32;101648.30;;;7.45;48.81
63306;BME280;50735;52.060;1.248;2023-04-27T03:06:05;101648.12;;;7.80;48.33
63306;BME280;50735;52.060;1.248;2023-04-27T03:08:37;101650.00;;;7.91;47.79
63306;BME280;50735;52.060;1.248;2023-04-27T03:11:08;101648.33;;;7.91;48.12
63306;BME280;50735;52.060;1.248;2023-04-27T03:13:40;101647.12;;;7.69;48.57
63306;BME280;50735;52.060;1.248;2023-04-27T03:16:12;101646.20;;;7.78;48.45
63306;BME280;50735;52.060;1.248;2023-04-27T03:18:44;101648.00;;;8.24;48.34
63306;BME280;50735;52.060;1.248;2023-04-27T03:21:16;101649.53;;;7.95;48.30
63306;BME280;50735;52.060;1.248;2023-04-27T03:23:47;101651.80;;;8.02;47.85
63306;BME280;50735;52.060;1.248;2023-04-27T03:26:19;101655.36;;;8.11;47.78
63306;BME280;50735;52.060;1.248;2023-04-27T03:28:51;101654.11;;;8.07;47.34
63306;BME280;50735;52.060;1.248;2023-04-27T03:31:23;101657.93;;;8.31;47.43
63306;BME280;50735;52.060;1.248;2023-04-27T03:33:54;101658.00;;;8.31;47.62
63306;BME280;50735;52.060;1.248;2023-04-27T03:36:26;101657.31;;;8.39;47.17
63306;BME280;50735;52.060;1.248;2023-04-27T03:38:58;101656.04;;;8.44;47.11
63306;BME280;50735;52.060;1.248;2023-04-27T03:41:30;101655.06;;;8.42;47.15
63306;BME280;50735;52.060;1.248;2023-04-27T03:44:03;101655.55;;;8.19;47.31
63306;BME280;50735;52.060;1.248;2023-04-27T03:46:35;101658.53;;;8.33;47.43
63306;BME280;50735;52.060;1.248;2023-04-27T03:49:07;101659.80;;;8.29;47.80
63306;BME280;50735;52.060;1.248;2023-04-27T03:51:39;101657.46;;;8.30;47.79
63306;BME280;50735;52.060;1.248;2023-04-27T03:54:10;101651.83;;;8.11;47.79
63306;BME280;50735;52.060;1.248;2023-04-27T03:56:42;101649.34;;;7.96;47.90
63306;BME280;50735;52.060;1.248;2023-04-27T03:59:14;101652.74;;;8.17;48.17
63306;BME280;50735;52.060;1.248;2023-04-27T04:01:46;101653.53;;;8.23;47.98
63306;BME280;50735;52.060;1.248;2023-04-27T04:04:17;101652.20;;;8.51;48.00
63306;BME280;50735;52.060;1.248;2023-04-27T04:06:49;101651.49;;;8.34;47.42
63306;BME280;50735;52.060;1.248;2023-04-27T04:09:21;101647.43;;;8.40;47.30
63306;BME280;50735;52.060;1.248;2023-04-27T04:11:53;101651.53;;;8.54;47.78
63306;BME280;50735;52.060;1.248;2023-04-27T04:14:26;101654.14;;;8.31;47.58
63306;BME280;50735;52.060;1.248;2023-04-27T04:16:58;101657.87;;;8.31;47.48
63306;BME280;50735;52.060;1.248;2023-04-27T04:19:29;101661.38;;;7.99;47.73
63306;BME280;50735;52.060;1.248;2023-04-27T04:22:01;101661.00;;;8.02;48.00
63306;BME280;50735;52.060;1.248;2023-04-27T04:24:34;101655.74;;;8.11;47.86
63306;BME280;50735;52.060;1.248;2023-04-27T04:27:06;101652.96;;;8.15;47.63
63306;BME280;50735;52.060;1.248;2023-04-27T04:29:38;101650.49;;;8.17;47.19
63306;BME280;50735;52.060;1.248;2023-04-27T04:32:09;101648.60;;;8.22;47.19
63306;BME280;50735;52.060;1.248;2023-04-27T04:34:41;101651.98;;;8.24;47.08
63306;BME280;50735;52.060;1.248;2023-04-27T04:37:13;101648.47;;;8.19;47.20
63306;BME280;50735;52.060;1.248;2023-04-27T04:39:45;101640.04;;;8.14;47.26
63306;BME280;50735;52.060;1.248;2023-04-27T04:42:17;101639.31;;;8.10;47.38
63306;BME280;50735;52.060;1.248;2023-04-27T04:44:49;101634.21;;;8.15;47.10
63306;BME280;50735;52.060;1.248;2023-04-27T04:47:21;101630.33;;;8.08;47.89
63306;BME280;50735;52.060;1.248;2023-04-27T04:49:52;101627.58;;;8.05;47.57
63306;BME280;50735;52.060;1.248;2023-04-27T04:52:24;101621.15;;;8.02;48.03
63306;BME280;50735;52.060;1.248;2023-04-27T04:54:56;101622.15;;;7.98;48.15
63306;BME280;50735;52.060;1.248;2023-04-27T04:57:29;101625.15;;;7.89;48.15
63306;BME280;50735;52.060;1.248;2023-04-27T05:00:01;101625.32;;;7.83;47.61
63306;BME280;50735;52.060;1.248;2023-04-27T05:02:32;101620.78;;;8.04;48.00
63306;BME280;50735;52.060;1.248;2023-04-27T05:05:05;101616.35;;;8.03;48.33
63306;BME280;50735;52.060;1.248;2023-04-27T05:07:37;101617.66;;;7.83;48.83
63306;BME280;50735;52.060;1.248;2023-04-27T05:10:09;101616.29;;;7.80;49.10
63306;BME280;50735;52.060;1.248;2023-04-27T05:12:41;101611.44;;;7.67;49.60
63306;BME280;50735;52.060;1.248;2023-04-27T05:15:12;101611.21;;;7.69;49.75
63306;BME280;50735;52.060;1.248;2023-04-27T05:17:44;101613.04;;;7.70;49.89
63306;BME280;50735;52.060;1.248;2023-04-27T05:20:16;101615.57;;;7.61;49.37
63306;BME280;50735;52.060;1.248;2023-04-27T05:22:49;101616.20;;;7.57;50.16
63306;BME280;50735;52.060;1.248;2023-04-27T05:25:20;101617.92;;;7.64;50.18
63306;BME280;50735;52.060;1.248;2023-04-27T05:27:52;101614.83;;;7.63;49.90
63306;BME280;50735;52.060;1.248;2023-04-27T05:30:25;101612.83;;;7.67;49.98
63306;BME280;50735;52.060;1.248;2023-04-27T05:32:56;101616.37;;;7.78;49.98
63306;BME280;50735;52.060;1.248;2023-04-27T05:35:28;101617.06;;;7.53;50.19
63306;BME280;50735;52.060;1.248;2023-04-27T05:38:01;101619.29;;;7.63;50.27
63306;BME280;50735;52.060;1.248;2023-04-27T05:40:33;101618.28;;;7.74;49.86
63306;BME280;50735;52.060;1.248;2023-04-27T05:43:05;101620.60;;;7.53;49.88
63306;BME280;50735;52.060;1.248;2023-04-27T05:45:38;101619.74;;;7.57;49.91
63306;BME280;50735;52.060;1.248;2023-04-27T05:48:10;101621.67;;;7.74;49.56
63306;BME280;50735;52.060;1.248;2023-04-27T05:50:42;101624.74;;;7.80;49.55
63306;BME280;50735;52.060;1.248;2023-04-27T05:53:14;101625.50;;;7.50;49.65
63306;BME280;50735;52.060;1.248;2023-04-27T05:55:46;101625.83;;;7.63;49.36
63306;BME280;50735;52.060;1.248;2023-04-27T05:58:18;101629.06;;;7.63;49.37
63306;BME280;50735;52.060;1.248;2023-04-27T06:00:50;101628.84;;;7.46;49.73
63306;BME280;50735;52.060;1.248;2023-04-27T06:03:23;101625.86;;;7.46;49.70
63306;BME280;50735;52.060;1.248;2023-04-27T06:05:55;101630.15;;;7.52;49.57
63306;BME280;50735;52.060;1.248;2023-04-27T06:08:28;101628.37;;;7.43;49.62
63306;BME280;50735;52.060;1.248;2023-04-27T06:10:59;101626.86;;;7.22;49.53
63306;BME280;50735;52.060;1.248;2023-04-27T06:13:31;101624.14;;;7.38;49.59
63306;BME280;50735;52.060;1.248;2023-04-27T06:16:04;101627.05;;;7.71;48.62
63306;BME280;50735;52.060;1.248;2023-04-27T06:18:36;101632.90;;;7.65;49.20
63306;BME280;50735;52.060;1.248;2023-04-27T06:21:08;101633.97;;;7.72;49.13
63306;BME280;50735;52.060;1.248;2023-04-27T06:23:39;101635.40;;;7.73;49.06
63306;BME280;50735;52.060;1.248;2023-04-27T06:26:11;101637.69;;;8.15;48.22
63306;BME280;50735;52.060;1.248;2023-04-27T06:28:43;101637.24;;;7.71;48.94
63306;BME280;50735;52.060;1.248;2023-04-27T06:31:15;101635.78;;;7.74;49.00
63306;BME280;50735;52.060;1.248;2023-04-27T06:33:47;101630.16;;;7.77;48.82
63306;BME280;50735;52.060;1.248;2023-04-27T06:36:19;101622.02;;;7.89;48.97
63306;BME280;50735;52.060;1.248;2023-04-27T06:38:51;101623.86;;;7.88;48.30
63306;BME280;50735;52.060;1.248;2023-04-27T06:41:24;101627.09;;;8.04;48.85
63306;BME280;50735;52.060;1.248;2023-04-27T06:43:56;101625.72;;;8.09;48.75
63306;BME280;50735;52.060;1.248;2023-04-27T06:46:28;101622.86;;;8.43;47.78
63306;BME280;50735;52.060;1.248;2023-04-27T06:49:00;101623.74;;;8.16;47.32
63306;BME280;50735;52.060;1.248;2023-04-27T06:51:32;101621.26;;;8.49;47.28
63306;BME280;50735;52.060;1.248;2023-04-27T06:54:04;101624.22;;;8.19;47.60
63306;BME280;50735;52.060;1.248;2023-04-27T06:56:35;101630.25;;;8.34;47.99
63306;BME280;50735;52.060;1.248;2023-04-27T06:59:08;101639.67;;;7.78;48.51
63306;BME280;50735;52.060;1.248;2023-04-27T07:01:39;101640.45;;;7.90;48.46
63306;BME280;50735;52.060;1.248;2023-04-27T07:04:11;101642.85;;;7.94;48.34
63306;BME280;50735;52.060;1.248;2023-04-27T07:06:43;101642.12;;;7.72;48.76
63306;BME280;50735;52.060;1.248;2023-04-27T07:09:15;101640.47;;;7.36;49.35
63306;BME280;50735;52.060;1.248;2023-04-27T07:11:47;101640.76;;;8.08;49.19
63306;BME280;50735;52.060;1.248;2023-04-27T07:14:18;101642.53;;;7.61;48.47
63306;BME280;50735;52.060;1.248;2023-04-27T07:16:50;101637.28;;;7.85;48.88
63306;BME280;50735;52.060;1.248;2023-04-27T07:19:23;101637.79;;;7.82;48.93
63306;BME280;50735;52.060;1.248;2023-04-27T07:21:54;101637.07;;;8.02;48.30
63306;BME280;50735;52.060;1.248;2023-04-27T07:24:27;101637.23;;;7.66;47.84
63306;BME280;50735;52.060;1.248;2023-04-27T07:26:58;101640.42;;;7.97;47.47
63306;BME280;50735;52.060;1.248;2023-04-27T07:29:30;101636.22;;;8.09;46.83
63306;BME280;50735;52.060;1.248;2023-04-27T07:32:04;101638.28;;;8.73;46.48
63306;BME280;50735;52.060;1.248;2023-04-27T07:34:36;101632.92;;;9.07;45.92
63306;BME280;50735;52.060;1.248;2023-04-27T07:37:08;101631.94;;;9.49;45.23
63306;BME280;50735;52.060;1.248;2023-04-27T07:39:40;101633.47;;;8.43;45.68
63306;BME280;50735;52.060;1.248;2023-04-27T07:42:12;101632.40;;;8.35;45.86
63306;BME280;50735;52.060;1.248;2023-04-27T07:44:44;101632.67;;;8.20;46.32
63306;BME280;50735;52.060;1.248;2023-04-27T07:47:17;101628.66;;;8.36;46.77
63306;BME280;50735;52.060;1.248;2023-04-27T07:49:49;101628.07;;;8.19;46.84
63306;BME280;50735;52.060;1.248;2023-04-27T07:52:21;101628.64;;;8.48;46.48
63306;BME280;50735;52.060;1.248;2023-04-27T07:54:53;101636.23;;;8.47;46.20
63306;BME280;50735;52.060;1.248;2023-04-27T07:57:25;101629.53;;;8.94;45.66
63306;BME280;50735;52.060;1.248;2023-04-27T07:59:56;101635.35;;;8.57;46.01
63306;BME280;50735;52.060;1.248;2023-04-27T08:02:28;101632.60;;;8.38;46.13
63306;BME280;50735;52.060;1.248;2023-04-27T08:04:59;101636.57;;;8.30;46.36
63306;BME280;50735;52.060;1.248;2023-04-27T08:07:32;101628.05;;;8.58;45.82
63306;BME280;50735;52.060;1.248;2023-04-27T08:10:05;101627.46;;;8.97;45.12
63306;BME280;50735;52.060;1.248;2023-04-27T08:12:37;101629.23;;;8.58;45.94
63306;BME280;50735;52.060;1.248;2023-04-27T08:15:10;101632.82;;;9.14;45.08
63306;BME280;50735;52.060;1.248;2023-04-27T08:17:41;101627.80;;;8.78;45.09
63306;BME280;50735;52.060;1.248;2023-04-27T08:20:13;101635.85;;;8.90;45.03
63306;BME280;50735;52.060;1.248;2023-04-27T08:22:45;101634.00;;;8.88;45.38
63306;BME280;50735;52.060;1.248;2023-04-27T08:25:17;101632.54;;;8.89;45.37
63306;BME280;50735;52.060;1.248;2023-04-27T08:27:48;101633.86;;;9.08;45.48
63306;BME280;50735;52.060;1.248;2023-04-27T08:30:20;101634.06;;;9.46;45.78
63306;BME280;50735;52.060;1.248;2023-04-27T08:32:52;101632.22;;;9.31;45.45
63306;BME280;50735;52.060;1.248;2023-04-27T08:35:24;101632.68;;;8.99;45.89
63306;BME280;50735;52.060;1.248;2023-04-27T08:37:56;101629.81;;;9.33;45.58
63306;BME280;50735;52.060;1.248;2023-04-27T08:40:28;101629.31;;;9.72;44.94
63306;BME280;50735;52.060;1.248;2023-04-27T08:43:00;101624.50;;;9.66;44.14
63306;BME280;50735;52.060;1.248;2023-04-27T08:45:32;101621.93;;;9.68;43.57
63306;BME280;50735;52.060;1.248;2023-04-27T08:48:04;101623.59;;;10.21;43.57
63306;BME280;50735;52.060;1.248;2023-04-27T08:50:37;101616.85;;;10.39;43.46
63306;BME280;50735;52.060;1.248;2023-04-27T08:53:16;101617.70;;;10.52;42.82
63306;BME280;50735;52.060;1.248;2023-04-27T08:55:49;101623.88;;;10.58;42.92
63306;BME280;50735;52.060;1.248;2023-04-27T08:58:21;101621.22;;;10.46;41.73
63306;BME280;50735;52.060;1.248;2023-04-27T09:00:53;101625.03;;;10.73;41.31
63306;BME280;50735;52.060;1.248;2023-04-27T09:03:25;101622.88;;;10.86;40.55
63306;BME280;50735;52.060;1.248;2023-04-27T09:05:57;101628.41;;;11.26;40.33
63306;BME280;50735;52.060;1.248;2023-04-27T09:08:40;101624.33;;;11.23;40.20
63306;BME280;50735;52.060;1.248;2023-04-27T09:11:12;101623.62;;;11.68;39.51
63306;BME280;50735;52.060;1.248;2023-04-27T09:13:44;101629.02;;;10.88;39.64
63306;BME280;50735;52.060;1.248;2023-04-27T09:16:22;101629.95;;;10.95;37.93
63306;BME280;50735;52.060;1.248;2023-04-27T09:18:54;101629.14;;;11.30;38.62
63306;BME280;50735;52.060;1.248;2023-04-27T09:21:28;101625.16;;;11.26;38.11
63306;BME280;50735;52.060;1.248;2023-04-27T09:24:09;101629.94;;;11.19;38.88
63306;BME280;50735;52.060;1.248;2023-04-27T09:26:48;101627.35;;;11.35;37.60
63306;BME280;50735;52.060;1.248;2023-04-27T09:29:31;101625.51;;;11.87;36.64
63306;BME280;50735;52.060;1.248;2023-04-27T09:32:13;101630.12;;;12.00;35.44
63306;BME280;50735;52.060;1.248;2023-04-27T09:34:45;101616.94;;;11.98;36.04
63306;BME280;50735;52.060;1.248;2023-04-27T09:37:18;101618.43;;;12.44;34.87
63306;BME280;50735;52.060;1.248;2023-04-27T09:39:50;101622.73;;;11.94;34.21
63306;BME280;50735;52.060;1.248;2023-04-27T09:42:22;101613.02;;;12.05;35.13
63306;BME280;50735;52.060;1.248;2023-04-27T09:44:55;101608.22;;;12.35;34.68
63306;BME280;50735;52.060;1.248;2023-04-27T09:47:27;101610.81;;;12.49;34.56
63306;BME280;50735;52.060;1.248;2023-04-27T09:50:00;101605.86;;;13.16;32.96
63306;BME280;50735;52.060;1.248;2023-04-27T09:52:33;101601.30;;;13.42;32.81
63306;BME280;50735;52.060;1.248;2023-04-27T09:55:09;101598.16;;;13.20;33.31
63306;BME280;50735;52.060;1.248;2023-04-27T09:57:50;101603.40;;;13.13;32.99
63306;BME280;50735;52.060;1.248;2023-04-27T10:00:33;101599.23;;;13.32;32.02
63306;BME280;50735;52.060;1.248;2023-04-27T10:03:17;101587.54;;;13.57;32.44
63306;BME280;50735;52.060;1.248;2023-04-27T10:06:20;101588.60;;;13.29;31.02
63306;BME280;50735;52.060;1.248;2023-04-27T10:09:03;101591.10;;;13.15;32.28
63306;BME280;50735;52.060;1.248;2023-04-27T10:11:37;101590.74;;;13.34;31.55
63306;BME280;50735;52.060;1.248;2023-04-27T10:14:15;101593.75;;;13.92;31.79
63306;BME280;50735;52.060;1.248;2023-04-27T10:16:50;101582.86;;;14.25;31.74
63306;BME280;50735;52.060;1.248;2023-04-27T10:19:23;101583.13;;;13.34;31.90
63306;BME280;50735;52.060;1.248;2023-04-27T10:21:57;101581.48;;;13.34;32.16
63306;BME280;50735;52.060;1.248;2023-04-27T10:24:37;101589.42;;;13.46;31.69
63306;BME280;50735;52.060;1.248;2023-04-27T10:27:10;101579.05;;;13.17;32.08
63306;BME280;50735;52.060;1.248;2023-04-27T10:29:44;101577.44;;;12.91;31.94
63306;BME280;50735;52.060;1.248;2023-04-27T10:32:20;101580.26;;;12.77;32.41
63306;BME280;50735;52.060;1.248;2023-04-27T10:35:03;101570.72;;;12.70;31.66
63306;BME280;50735;52.060;1.248;2023-04-27T10:37:39;101571.72;;;12.91;32.04
63306;BME280;50735;52.060;1.248;2023-04-27T10:40:12;101569.44;;;12.05;34.79
63306;BME280;50735;52.060;1.248;2023-04-27T10:42:46;101555.68;;;12.48;33.46
63306;BME280;50735;52.060;1.248;2023-04-27T10:45:33;101558.23;;;12.01;32.85
63306;BME280;50735;52.060;1.248;2023-04-27T10:48:05;101548.57;;;11.97;33.66
63306;BME280;50735;52.060;1.248;2023-04-27T10:50:37;101552.67;;;12.12;33.04
63306;BME280;50735;52.060;1.248;2023-04-27T10:53:09;101544.38;;;12.06;33.40
63306;BME280;50735;52.060;1.248;2023-04-27T10:55:41;101539.40;;;12.57;31.59
63306;BME280;50735;52.060;1.248;2023-04-27T10:58:13;101544.34;;;12.54;33.44
63306;BME280;50735;52.060;1.248;2023-04-27T11:00:45;101542.22;;;12.83;32.20
63306;BME280;50735;52.060;1.248;2023-04-27T11:03:18;101537.44;;;12.54;31.87
63306;BME280;50735;52.060;1.248;2023-04-27T11:05:59;101539.45;;;12.82;32.00
63306;BME280;50735;52.060;1.248;2023-04-27T11:08:32;101541.28;;;12.89;31.62
63306;BME280;50735;52.060;1.248;2023-04-27T11:11:04;101536.62;;;12.97;32.05
63306;BME280;50735;52.060;1.248;2023-04-27T11:13:36;101533.55;;;12.62;33.01
63306;BME280;50735;52.060;1.248;2023-04-27T11:16:08;101544.08;;;12.88;33.23
63306;BME280;50735;52.060;1.248;2023-04-27T11:18:41;101538.62;;;12.27;32.57
63306;BME280;50735;52.060;1.248;2023-04-27T11:21:14;101546.04;;;11.73;33.74
63306;BME280;50735;52.060;1.248;2023-04-27T11:23:46;101532.25;;;11.82;33.09
63306;BME280;50735;52.060;1.248;2023-04-27T11:26:20;101537.88;;;12.13;33.03
63306;BME280;50735;52.060;1.248;2023-04-27T11:28:57;101537.13;;;12.34;33.63
63306;BME280;50735;52.060;1.248;2023-04-27T11:31:38;101534.91;;;12.17;33.26
63306;BME280;50735;52.060;1.248;2023-04-27T11:34:14;101530.18;;;12.37;32.44
63306;BME280;50735;52.060;1.248;2023-04-27T11:36:56;101535.22;;;12.75;32.40
63306;BME280;50735;52.060;1.248;2023-04-27T11:39:31;101527.55;;;12.92;32.27
63306;BME280;50735;52.060;1.248;2023-04-27T11:42:20;101525.48;;;13.30;32.81
63306;BME280;50735;52.060;1.248;2023-04-27T11:44:53;101525.53;;;13.34;31.76
63306;BME280;50735;52.060;1.248;2023-04-27T11:47:27;101519.97;;;12.72;32.11
63306;BME280;50735;52.060;1.248;2023-04-27T11:50:02;101514.42;;;12.57;32.49
63306;BME280;50735;52.060;1.248;2023-04-27T11:52:36;101508.50;;;13.10;32.06
63306;BME280;50735;52.060;1.248;2023-04-27T11:55:08;101507.25;;;12.72;32.36
63306;BME280;50735;52.060;1.248;2023-04-27T11:57:41;101511.83;;;12.82;34.03
63306;BME280;50735;52.060;1.248;2023-04-27T12:00:14;101507.97;;;11.94;34.92
63306;BME280;50735;52.060;1.248;2023-04-27T12:02:46;101502.60;;;12.55;34.14
63306;BME280;50735;52.060;1.248;2023-04-27T12:05:18;101497.10;;;12.73;34.13
63306;BME280;50735;52.060;1.248;2023-04-27T12:07:51;101482.07;;;12.86;33.41
63306;BME280;50735;52.060;1.248;2023-04-27T12:10:23;101483.82;;;13.01;34.03
63306;BME280;50735;52.060;1.248;2023-04-27T12:12:55;101478.34;;;12.94;33.19
63306;BME280;50735;52.060;1.248;2023-04-27T12:15:27;101475.35;;;13.21;32.55
63306;BME280;50735;52.060;1.248;2023-04-27T12:17:59;101473.93;;;12.90;33.11
63306;BME280;50735;52.060;1.248;2023-04-27T12:20:32;101480.82;;;12.36;33.59
63306;BME280;50735;52.060;1.248;2023-04-27T12:23:04;101474.62;;;12.49;34.39
63306;BME280;50735;52.060;1.248;2023-04-27T12:25:35;101471.39;;;13.06;34.07
63306;BME280;50735;52.060;1.248;2023-04-27T12:28:07;101465.73;;;12.86;33.73
63306;BME280;50735;52.060;1.248;2023-04-27T12:30:39;101475.40;;;12.27;33.36
63306;BME280;50735;52.060;1.248;2023-04-27T12:33:11;101473.26;;;11.92;33.71
63306;BME280;50735;52.060;1.248;2023-04-27T12:35:43;101477.61;;;11.97;32.99
63306;BME280;50735;52.060;1.248;2023-04-27T12:38:15;101482.88;;;11.64;33.86
63306;BME280;50735;52.060;1.248;2023-04-27T12:40:47;101467.44;;;12.34;34.17
63306;BME280;50735;52.060;1.248;2023-04-27T12:43:19;101468.16;;;11.73;34.41
63306;BME280;50735;52.060;1.248;2023-04-27T12:45:51;101468.24;;;11.60;34.99
63306;BME280;50735;52.060;1.248;2023-04-27T12:48:22;101463.42;;;11.50;35.90
63306;BME280;50735;52.060;1.248;2023-04-27T12:50:55;101456.44;;;11.94;35.78
63306;BME280;50735;52.060;1.248;2023-04-27T12:53:27;101460.59;;;11.41;35.80
63306;BME280;50735;52.060;1.248;2023-04-27T12:56:01;101455.48;;;11.23;36.16
63306;BME280;50735;52.060;1.248;2023-04-27T12:58:33;101458.53;;;11.18;35.92
63306;BME280;50735;52.060;1.248;2023-04-27T13:01:06;101456.59;;;11.35;36.60
63306;BME280;50735;52.060;1.248;2023-04-27T13:03:38;101455.08;;;11.16;36.90
63306;BME280;50735;52.060;1.248;2023-04-27T13:06:10;101453.49;;;11.12;37.04
63306;BME280;50735;52.060;1.248;2023-04-27T13:08:42;101454.17;;;10.74;37.29
63306;BME280;50735;52.060;1.248;2023-04-27T13:11:14;101448.87;;;10.94;37.32
63306;BME280;50735;52.060;1.248;2023-04-27T13:13:46;101449.28;;;10.80;37.75
63306;BME280;50735;52.060;1.248;2023-04-27T13:16:18;101441.66;;;10.47;38.43
63306;BME280;50735;52.060;1.248;2023-04-27T13:18:50;101441.25;;;9.91;38.60
63306;BME280;50735;52.060;1.248;2023-04-27T13:21:22;101433.83;;;9.85;39.53
63306;BME280;50735;52.060;1.248;2023-04-27T13:23:54;101433.24;;;10.45;39.07
63306;BME280;50735;52.060;1.248;2023-04-27T13:26:25;101434.90;;;10.76;38.62